createdAt,value
2019-05-22T00:00:24.582Z,17.2
2019-05-22T00:01:24.595Z,17.2
2019-05-22T00:02:24.622Z,17.2
2019-05-22T00:03:24.613Z,17.2
2019-05-22T00:04:24.695Z,17.2
2019-05-22T00:05:24.711Z,17.1
2019-05-22T00:06:24.755Z,17.1
2019-05-22T00:07:24.793Z,17.1
2019-05-22T00:08:24.856Z,17.1
2019-05-22T00:09:27.232Z,17.1
2019-05-22T00:10:24.891Z,17.1
2019-05-22T00:11:24.965Z,17.1
2019-05-22T00:12:24.962Z,17.1
2019-05-22T00:13:25.017Z,17.1
2019-05-22T00:14:25.055Z,17.1
2019-05-22T00:15:25.136Z,17
2019-05-22T00:16:25.171Z,17
2019-05-22T00:17:25.236Z,17
2019-05-22T00:18:25.287Z,17
2019-05-22T00:19:25.358Z,17
2019-05-22T00:20:25.358Z,17
2019-05-22T00:21:25.392Z,17
2019-05-22T00:22:25.472Z,17
2019-05-22T00:23:25.463Z,16.9
2019-05-22T00:24:25.489Z,16.9
2019-05-22T00:25:25.538Z,16.9
2019-05-22T00:26:25.512Z,16.9
2019-05-22T00:27:25.603Z,16.9
2019-05-22T00:28:25.657Z,16.9
2019-05-22T00:29:25.717Z,16.9
2019-05-22T00:30:25.754Z,16.9
2019-05-22T00:31:25.736Z,16.9
2019-05-22T00:32:25.794Z,16.9
2019-05-22T00:33:25.862Z,16.8
2019-05-22T00:34:25.871Z,16.8
2019-05-22T00:35:25.952Z,16.8
2019-05-22T00:36:25.935Z,16.8
2019-05-22T00:37:26.018Z,16.8
2019-05-22T00:38:26.046Z,16.8
2019-05-22T00:39:26.121Z,16.8
2019-05-22T00:40:26.198Z,16.8
2019-05-22T00:41:26.131Z,16.8
2019-05-22T00:42:26.228Z,16.8
2019-05-22T00:43:26.215Z,16.8
2019-05-22T00:44:26.271Z,16.8
2019-05-22T00:45:26.296Z,16.8
2019-05-22T00:46:26.295Z,16.8
2019-05-22T00:47:26.328Z,16.8
2019-05-22T00:48:26.391Z,16.8
2019-05-22T00:49:26.386Z,16.8
2019-05-22T00:50:26.447Z,16.8
2019-05-22T00:51:26.433Z,16.8
2019-05-22T00:52:26.506Z,16.8
2019-05-22T00:53:26.500Z,16.8
2019-05-22T00:54:26.563Z,16.8
2019-05-22T00:55:26.599Z,16.8
2019-05-22T00:56:26.613Z,16.8
2019-05-22T00:57:26.636Z,16.8
2019-05-22T00:58:27.725Z,16.8
2019-05-22T00:59:26.678Z,16.8
2019-05-22T01:00:26.730Z,16.8
2019-05-22T01:01:26.749Z,16.7
2019-05-22T01:02:26.781Z,16.7
2019-05-22T01:03:26.845Z,16.8
2019-05-22T01:04:26.875Z,16.7
2019-05-22T01:05:26.890Z,16.7
2019-05-22T01:06:26.935Z,16.7
2019-05-22T01:07:27.026Z,16.7
2019-05-22T01:08:27.031Z,16.7
2019-05-22T01:09:27.038Z,16.7
2019-05-22T01:10:27.099Z,16.7
2019-05-22T01:11:27.111Z,16.7
2019-05-22T01:12:27.121Z,16.7
2019-05-22T01:13:27.182Z,16.7
2019-05-22T01:14:41.855Z,16.7
2019-05-22T01:15:27.200Z,16.7
2019-05-22T01:16:27.227Z,16.7
2019-05-22T01:17:27.252Z,16.7
2019-05-22T01:18:27.310Z,16.7
2019-05-22T01:19:27.335Z,16.7
2019-05-22T01:20:27.327Z,16.7
2019-05-22T01:21:27.365Z,16.7
2019-05-22T01:22:27.386Z,16.7
2019-05-22T01:23:27.426Z,16.7
2019-05-22T01:24:27.446Z,16.7
2019-05-22T01:25:27.454Z,16.7
2019-05-22T01:26:27.451Z,16.7
2019-05-22T01:27:27.471Z,16.7
2019-05-22T01:28:27.504Z,16.7
2019-05-22T01:29:27.532Z,16.7
2019-05-22T01:30:27.534Z,16.7
2019-05-22T01:31:27.551Z,16.7
2019-05-22T01:32:27.568Z,16.7
2019-05-22T01:33:27.585Z,16.7
2019-05-22T01:34:27.623Z,16.7
2019-05-22T01:35:27.645Z,16.7
2019-05-22T01:36:27.662Z,16.7
2019-05-22T01:37:27.647Z,16.7
2019-05-22T01:38:27.676Z,16.7
2019-05-22T01:39:27.686Z,16.7
2019-05-22T01:40:27.777Z,16.7
2019-05-22T01:41:27.718Z,16.7
2019-05-22T01:42:27.718Z,16.7
2019-05-22T01:43:27.734Z,16.7
2019-05-22T01:44:27.779Z,16.6
2019-05-22T01:45:27.764Z,16.6
2019-05-22T01:46:27.805Z,16.7
2019-05-22T01:47:27.796Z,16.6
2019-05-22T01:48:27.804Z,16.7
2019-05-22T01:49:27.811Z,16.6
2019-05-22T01:50:27.811Z,16.6
2019-05-22T01:51:27.800Z,16.6
2019-05-22T01:52:27.835Z,16.6
2019-05-22T01:53:27.835Z,16.6
2019-05-22T01:54:27.860Z,16.6
2019-05-22T01:55:27.832Z,16.6
2019-05-22T01:56:27.860Z,16.6
2019-05-22T01:57:27.887Z,16.6
2019-05-22T01:58:27.904Z,16.6
2019-05-22T01:59:27.891Z,16.6
2019-05-22T02:00:27.843Z,16.6
2019-05-22T02:01:27.901Z,16.6
2019-05-22T02:02:27.939Z,16.6
2019-05-22T02:03:27.992Z,16.6
2019-05-22T02:04:28.084Z,16.6
2019-05-22T02:05:28.102Z,16.6
2019-05-22T02:06:28.187Z,16.5
2019-05-22T02:07:28.202Z,16.5
2019-05-22T02:08:28.246Z,16.5
2019-05-22T02:09:28.334Z,16.5
2019-05-22T02:10:28.331Z,16.5
2019-05-22T02:11:28.377Z,16.5
2019-05-22T02:12:28.446Z,16.5
2019-05-22T02:13:28.478Z,16.5
2019-05-22T02:14:28.552Z,16.4
2019-05-22T02:15:28.579Z,16.4
2019-05-22T02:16:28.590Z,16.4
2019-05-22T02:17:28.632Z,16.4
2019-05-22T02:18:28.677Z,16.4
2019-05-22T02:19:28.752Z,16.4
2019-05-22T02:20:28.869Z,16.4
2019-05-22T02:21:28.831Z,16.4
2019-05-22T02:22:28.795Z,16.4
2019-05-22T02:23:28.801Z,16.4
2019-05-22T02:24:28.940Z,16.4
2019-05-22T02:25:28.942Z,16.4
2019-05-22T02:26:31.203Z,16.3
2019-05-22T02:27:29.003Z,16.3
2019-05-22T02:28:29.028Z,16.3
2019-05-22T02:29:29.076Z,16.3
2019-05-22T02:30:29.146Z,16.3
2019-05-22T02:31:29.155Z,16.3
2019-05-22T02:32:29.221Z,16.2
2019-05-22T02:33:31.620Z,16.2
2019-05-22T02:34:29.318Z,16.2
2019-05-22T02:35:29.314Z,16.2
2019-05-22T02:36:29.390Z,16.2
2019-05-22T02:37:29.449Z,16.2
2019-05-22T02:38:29.429Z,16.2
2019-05-22T02:39:29.503Z,16.2
2019-05-22T02:40:29.516Z,16.2
2019-05-22T02:41:29.541Z,16.2
2019-05-22T02:42:29.574Z,16.2
2019-05-22T02:43:29.595Z,16.2
2019-05-22T02:44:29.631Z,16.2
2019-05-22T02:45:29.671Z,16.1
2019-05-22T02:46:29.764Z,16.1
2019-05-22T02:47:29.765Z,16.1
2019-05-22T02:48:29.808Z,16.1
2019-05-22T02:49:29.824Z,16.1
2019-05-22T02:50:29.871Z,16.1
2019-05-22T02:51:29.926Z,16.1
2019-05-22T02:52:29.932Z,16.1
2019-05-22T02:53:29.955Z,16.1
2019-05-22T02:54:29.955Z,16.1
2019-05-22T02:55:29.998Z,16.1
2019-05-22T02:56:30.048Z,16.1
2019-05-22T02:57:30.026Z,16.1
2019-05-22T02:58:30.067Z,16.1
2019-05-22T02:59:30.190Z,16.1
2019-05-22T03:00:30.148Z,16.1
2019-05-22T03:01:30.222Z,16.1
2019-05-22T03:02:30.267Z,16.1
2019-05-22T03:03:30.263Z,16.1
2019-05-22T03:04:30.249Z,16.1
2019-05-22T03:05:30.283Z,16.1
2019-05-22T03:06:30.277Z,16.1
2019-05-22T03:07:30.306Z,16.1
2019-05-22T03:08:30.295Z,16.1
2019-05-22T03:09:30.348Z,16.1
2019-05-22T03:10:30.382Z,16.1
2019-05-22T03:11:34.441Z,16.1
2019-05-22T03:12:30.407Z,16.2
2019-05-22T03:13:30.418Z,16.2
2019-05-22T03:14:30.448Z,16.1
2019-05-22T03:15:30.474Z,16.1
2019-05-22T03:16:30.445Z,16.2
2019-05-22T03:17:30.518Z,16.2
2019-05-22T03:18:30.542Z,16.2
2019-05-22T03:19:30.506Z,16.2
2019-05-22T03:20:30.525Z,16.1
2019-05-22T03:21:30.552Z,16.1
2019-05-22T03:22:30.658Z,16.1
2019-05-22T03:23:30.579Z,16.1
2019-05-22T03:24:30.592Z,16.1
2019-05-22T03:25:30.595Z,16.1
2019-05-22T03:26:30.594Z,16.1
2019-05-22T03:27:30.648Z,16.1
2019-05-22T03:28:30.651Z,16.1
2019-05-22T03:29:30.609Z,16.1
2019-05-22T03:30:30.683Z,16
2019-05-22T03:31:30.640Z,16
2019-05-22T03:32:30.695Z,16
2019-05-22T03:33:30.663Z,16
2019-05-22T03:34:30.657Z,16
2019-05-22T03:35:30.676Z,16
2019-05-22T03:36:30.696Z,16
2019-05-22T03:37:30.700Z,16
2019-05-22T03:38:30.721Z,16
2019-05-22T03:39:30.876Z,16
2019-05-22T03:40:30.885Z,16
2019-05-22T03:41:30.753Z,16
2019-05-22T03:42:30.722Z,16
2019-05-22T03:43:30.763Z,16
2019-05-22T03:44:30.701Z,16
2019-05-22T03:45:30.764Z,16
2019-05-22T03:46:30.725Z,15.9
2019-05-22T03:47:30.805Z,15.9
2019-05-22T03:48:30.854Z,15.9
2019-05-22T03:49:31.344Z,15.9
2019-05-22T03:50:30.817Z,15.9
2019-05-22T03:51:30.887Z,15.9
2019-05-22T03:52:30.983Z,15.9
2019-05-22T03:53:30.993Z,15.9
2019-05-22T03:54:31.055Z,15.9
2019-05-22T03:55:31.119Z,15.9
2019-05-22T03:56:31.194Z,15.9
2019-05-22T03:57:31.264Z,15.9
2019-05-22T03:58:31.313Z,15.9
2019-05-22T03:59:31.314Z,16
2019-05-22T04:00:31.389Z,15.9
2019-05-22T04:01:31.394Z,15.9
2019-05-22T04:02:31.501Z,15.9
2019-05-22T04:03:31.503Z,15.9
2019-05-22T04:04:31.557Z,15.9
2019-05-22T04:05:31.568Z,15.9
2019-05-22T04:06:31.623Z,15.9
2019-05-22T04:07:31.652Z,15.9
2019-05-22T04:08:31.705Z,15.9
2019-05-22T04:09:31.711Z,15.9
2019-05-22T04:10:31.780Z,15.9
2019-05-22T04:11:31.767Z,15.9
2019-05-22T04:12:31.836Z,15.9
2019-05-22T04:13:31.900Z,15.8
2019-05-22T04:14:31.918Z,15.8
2019-05-22T04:15:31.963Z,15.8
2019-05-22T04:16:32.004Z,15.8
2019-05-22T04:17:32.040Z,15.9
2019-05-22T04:18:32.114Z,15.9
2019-05-22T04:19:47.227Z,15.8
2019-05-22T04:20:32.135Z,15.8
2019-05-22T04:21:32.203Z,15.8
2019-05-22T04:22:32.253Z,15.8
2019-05-22T04:23:32.268Z,15.8
2019-05-22T04:24:32.263Z,15.8
2019-05-22T04:25:32.396Z,15.7
2019-05-22T04:26:32.322Z,15.7
2019-05-22T04:27:32.339Z,15.7
2019-05-22T04:28:32.350Z,15.7
2019-05-22T04:29:32.398Z,15.7
2019-05-22T04:30:32.467Z,15.7
2019-05-22T04:31:32.507Z,15.7
2019-05-22T04:32:32.549Z,15.7
2019-05-22T04:33:32.627Z,15.7
2019-05-22T04:34:32.641Z,15.7
2019-05-22T04:35:32.625Z,15.7
2019-05-22T04:36:32.688Z,15.6
2019-05-22T04:37:32.766Z,15.6
2019-05-22T04:38:32.944Z,15.6
2019-05-22T04:39:32.790Z,15.6
2019-05-22T04:40:32.852Z,15.5
2019-05-22T04:41:32.879Z,15.5
2019-05-22T04:42:32.938Z,15.5
2019-05-22T04:43:32.953Z,15.5
2019-05-22T04:44:32.956Z,15.5
2019-05-22T04:45:32.966Z,15.5
2019-05-22T04:46:33.027Z,15.5
2019-05-22T04:47:33.048Z,15.5
2019-05-22T04:48:33.070Z,15.5
2019-05-22T04:49:33.103Z,15.5
2019-05-22T04:50:33.123Z,15.5
2019-05-22T04:51:33.253Z,15.5
2019-05-22T04:52:33.160Z,15.5
2019-05-22T04:53:33.187Z,15.5
2019-05-22T04:54:33.226Z,15.5
2019-05-22T04:55:33.259Z,15.5
2019-05-22T04:56:33.291Z,15.5
2019-05-22T04:57:33.290Z,15.5
2019-05-22T04:58:33.312Z,15.5
2019-05-22T04:59:34.378Z,15.4
2019-05-22T05:00:33.364Z,15.4
2019-05-22T05:01:33.427Z,15.4
2019-05-22T05:02:33.394Z,15.4
2019-05-22T05:03:33.435Z,15.4
2019-05-22T05:04:33.456Z,15.4
2019-05-22T05:05:33.477Z,15.4
2019-05-22T05:06:33.516Z,15.4
2019-05-22T05:07:33.513Z,15.4
2019-05-22T05:08:33.548Z,15.5
2019-05-22T05:09:33.531Z,15.4
2019-05-22T05:10:33.550Z,15.4
2019-05-22T05:11:33.585Z,15.4
2019-05-22T05:12:33.574Z,15.5
2019-05-22T05:13:33.622Z,15.4
2019-05-22T05:14:33.616Z,15.4
2019-05-22T05:15:36.714Z,15.4
2019-05-22T05:16:33.677Z,15.4
2019-05-22T05:17:33.673Z,15.4
2019-05-22T05:18:33.697Z,15.4
2019-05-22T05:19:33.710Z,15.4
2019-05-22T05:20:33.722Z,15.4
2019-05-22T05:21:33.717Z,15.3
2019-05-22T05:22:33.723Z,15.3
2019-05-22T05:23:33.733Z,15.3
2019-05-22T05:24:33.784Z,15.3
2019-05-22T05:25:33.782Z,15.3
2019-05-22T05:26:33.780Z,15.3
2019-05-22T05:27:33.779Z,15.2
2019-05-22T05:28:33.787Z,15.2
2019-05-22T05:29:33.872Z,15.2
2019-05-22T05:30:33.820Z,15.2
2019-05-22T05:31:33.827Z,15.2
2019-05-22T05:32:34.239Z,15.2
2019-05-22T05:33:33.885Z,15.2
2019-05-22T05:34:33.849Z,15.2
2019-05-22T05:35:33.829Z,15.1
2019-05-22T05:36:33.846Z,15.1
2019-05-22T05:37:33.871Z,15.1
2019-05-22T05:38:33.905Z,15.1
2019-05-22T05:39:33.864Z,15.1
2019-05-22T05:40:33.879Z,15.1
2019-05-22T05:41:33.872Z,15.1
2019-05-22T05:42:33.868Z,15.1
2019-05-22T05:43:33.931Z,15
2019-05-22T05:44:33.949Z,15
2019-05-22T05:45:33.966Z,15
2019-05-22T05:46:34.053Z,15
2019-05-22T05:47:34.075Z,15
2019-05-22T05:48:34.170Z,15
2019-05-22T05:49:34.207Z,15
2019-05-22T05:50:39.269Z,14.9
2019-05-22T05:51:34.291Z,14.9
2019-05-22T05:52:34.359Z,14.9
2019-05-22T05:53:34.429Z,14.9
2019-05-22T05:54:34.421Z,14.9
2019-05-22T05:55:34.463Z,14.9
2019-05-22T05:56:34.512Z,14.8
2019-05-22T05:57:34.567Z,14.8
2019-05-22T05:58:34.598Z,14.8
2019-05-22T05:59:34.621Z,14.8
2019-05-22T06:00:34.591Z,14.8
2019-05-22T06:01:34.611Z,14.8
2019-05-22T06:02:34.632Z,14.8
2019-05-22T06:03:34.709Z,14.8
2019-05-22T06:04:35.566Z,14.8
2019-05-22T06:05:35.841Z,14.8
2019-05-22T06:06:34.856Z,14.8
2019-05-22T06:07:34.869Z,14.8
2019-05-22T06:08:34.910Z,14.8
2019-05-22T06:09:34.953Z,14.8
2019-05-22T06:10:34.968Z,14.8
2019-05-22T06:11:35.000Z,14.8
2019-05-22T06:12:34.990Z,14.8
2019-05-22T06:13:35.050Z,14.8
2019-05-22T06:14:35.105Z,14.8
2019-05-22T06:15:46.247Z,14.8
2019-05-22T06:16:35.150Z,14.8
2019-05-22T06:17:35.177Z,14.7
2019-05-22T06:18:35.218Z,14.7
2019-05-22T06:19:35.299Z,14.7
2019-05-22T06:20:35.264Z,14.8
2019-05-22T06:21:35.333Z,14.8
2019-05-22T06:22:35.371Z,14.7
2019-05-22T06:23:35.415Z,14.7
2019-05-22T06:24:35.474Z,14.7
2019-05-22T06:25:35.505Z,14.7
2019-05-22T06:26:35.550Z,14.7
2019-05-22T06:27:35.604Z,14.7
2019-05-22T06:28:35.635Z,14.7
2019-05-22T06:29:35.720Z,14.7
2019-05-22T06:30:35.729Z,14.7
2019-05-22T06:31:35.732Z,14.7
2019-05-22T06:32:35.803Z,14.7
2019-05-22T06:33:35.842Z,14.7
2019-05-22T06:34:35.904Z,14.8
2019-05-22T06:35:35.910Z,14.7
2019-05-22T06:36:35.935Z,14.7
2019-05-22T06:37:35.969Z,14.7
2019-05-22T06:38:36.009Z,14.7
2019-05-22T06:39:36.069Z,14.8
2019-05-22T06:40:36.091Z,14.8
2019-05-22T06:41:36.100Z,14.8
2019-05-22T06:42:36.137Z,14.8
2019-05-22T06:43:36.197Z,14.8
2019-05-22T06:44:36.240Z,14.8
2019-05-22T06:45:36.285Z,14.8
2019-05-22T06:46:36.263Z,14.8
2019-05-22T06:47:36.283Z,14.8
2019-05-22T06:48:36.294Z,14.8
2019-05-22T06:49:36.334Z,14.7
2019-05-22T06:50:36.362Z,14.7
2019-05-22T06:51:36.362Z,14.7
2019-05-22T06:52:36.477Z,14.8
2019-05-22T06:53:36.433Z,14.8
2019-05-22T06:54:36.440Z,14.7
2019-05-22T06:55:36.453Z,14.7
2019-05-22T06:56:36.493Z,14.7
2019-05-22T06:57:36.520Z,14.6
2019-05-22T06:58:36.505Z,14.6
2019-05-22T06:59:36.522Z,14.7
2019-05-22T07:00:36.582Z,14.7
2019-05-22T07:01:36.575Z,14.6
2019-05-22T07:02:36.608Z,14.6
2019-05-22T07:03:36.621Z,14.6
2019-05-22T07:04:36.634Z,14.7
2019-05-22T07:05:36.642Z,14.7
2019-05-22T07:06:36.645Z,14.6
2019-05-22T07:07:36.687Z,14.7
2019-05-22T07:08:36.747Z,14.7
2019-05-22T07:09:36.690Z,14.7
2019-05-22T07:10:36.697Z,14.7
2019-05-22T07:11:36.727Z,14.6
2019-05-22T07:12:36.753Z,14.6
2019-05-22T07:13:36.726Z,14.6
2019-05-22T07:14:36.747Z,14.6
2019-05-22T07:15:36.819Z,14.6
2019-05-22T07:16:36.774Z,14.6
2019-05-22T07:17:36.810Z,14.6
2019-05-22T07:18:36.776Z,14.6
2019-05-22T07:19:36.780Z,14.6
2019-05-22T07:20:36.799Z,14.6
2019-05-22T07:21:36.799Z,14.6
2019-05-22T07:22:36.809Z,14.6
2019-05-22T07:23:36.810Z,14.6
2019-05-22T07:24:36.886Z,14.6
2019-05-22T07:25:36.978Z,14.6
2019-05-22T07:26:37.005Z,14.6
2019-05-22T07:27:36.957Z,14.6
2019-05-22T07:28:37.027Z,14.6
2019-05-22T07:29:37.054Z,14.6
2019-05-22T07:30:37.127Z,14.6
2019-05-22T07:31:37.201Z,14.6
2019-05-22T07:32:37.217Z,14.7
2019-05-22T07:33:37.253Z,14.7
2019-05-22T07:34:37.340Z,14.7
2019-05-22T07:35:50.224Z,14.6
2019-05-22T07:36:37.420Z,14.7
2019-05-22T07:37:37.472Z,14.7
2019-05-22T07:38:37.476Z,14.7
2019-05-22T07:39:37.533Z,14.7
2019-05-22T07:40:37.569Z,14.7
2019-05-22T07:41:37.656Z,14.7
2019-05-22T07:42:37.681Z,14.7
2019-05-22T07:43:41.128Z,14.7
2019-05-22T07:44:37.734Z,14.7
2019-05-22T07:45:37.808Z,14.7
2019-05-22T07:46:38.133Z,14.7
2019-05-22T07:47:37.889Z,14.7
2019-05-22T07:48:37.956Z,14.6
2019-05-22T07:49:37.984Z,14.6
2019-05-22T07:50:38.073Z,14.7
2019-05-22T07:51:51.804Z,14.7
2019-05-22T07:52:38.126Z,14.7
2019-05-22T07:53:38.205Z,14.7
2019-05-22T07:54:38.219Z,14.7
2019-05-22T07:55:38.294Z,14.7
2019-05-22T07:56:38.354Z,14.7
2019-05-22T07:57:38.406Z,14.7
2019-05-22T07:58:38.396Z,14.7
2019-05-22T07:59:38.458Z,14.7
2019-05-22T08:00:38.534Z,14.6
2019-05-22T08:01:38.587Z,14.6
2019-05-22T08:02:38.584Z,14.6
2019-05-22T08:03:38.627Z,14.6
2019-05-22T08:04:38.701Z,14.6
2019-05-22T08:05:38.777Z,14.6
2019-05-22T08:06:38.822Z,14.6
2019-05-22T08:07:38.854Z,14.6
2019-05-22T08:08:38.852Z,14.6
2019-05-22T08:09:38.943Z,14.5
2019-05-22T08:10:38.920Z,14.5
2019-05-22T08:11:38.972Z,14.5
2019-05-22T08:12:38.987Z,14.5
2019-05-22T08:13:39.012Z,14.5
2019-05-22T08:14:39.043Z,14.5
2019-05-22T08:15:39.122Z,14.5
2019-05-22T08:16:39.168Z,14.5
2019-05-22T08:17:39.169Z,14.5
2019-05-22T08:18:39.215Z,14.5
2019-05-22T08:19:39.226Z,14.5
2019-05-22T08:20:39.241Z,14.4
2019-05-22T08:21:39.312Z,14.5
2019-05-22T08:22:39.331Z,14.5
2019-05-22T08:23:39.376Z,14.5
2019-05-22T08:24:39.392Z,14.4
2019-05-22T08:25:39.434Z,14.4
2019-05-22T08:26:53.112Z,14.4
2019-05-22T08:27:39.490Z,14.5
2019-05-22T08:28:39.530Z,14.5
2019-05-22T08:29:39.563Z,14.5
2019-05-22T08:30:39.624Z,14.5
2019-05-22T08:31:39.683Z,14.5
2019-05-22T08:32:39.693Z,14.4
2019-05-22T08:33:39.770Z,14.4
2019-05-22T08:34:39.773Z,14.4
2019-05-22T08:35:39.813Z,14.4
2019-05-22T08:36:40.022Z,14.4
2019-05-22T08:37:39.906Z,14.4
2019-05-22T08:38:39.940Z,14.4
2019-05-22T08:39:39.909Z,14.4
2019-05-22T08:40:39.960Z,14.4
2019-05-22T08:41:39.972Z,14.4
2019-05-22T08:42:40.023Z,14.4
2019-05-22T08:43:56.385Z,14.4
2019-05-22T08:44:40.088Z,14.4
2019-05-22T08:45:40.107Z,14.4
2019-05-22T08:46:40.106Z,14.4
2019-05-22T08:47:40.141Z,14.4
2019-05-22T08:48:46.848Z,14.4
2019-05-22T08:49:40.212Z,14.4
2019-05-22T08:50:40.551Z,14.4
2019-05-22T08:51:40.253Z,14.4
2019-05-22T08:52:42.484Z,14.3
2019-05-22T08:53:47.094Z,14.3
2019-05-22T08:54:40.332Z,14.3
2019-05-22T08:55:40.310Z,14.3
2019-05-22T08:56:40.347Z,14.3
2019-05-22T08:57:40.363Z,14.3
2019-05-22T08:58:40.339Z,14.4
2019-05-22T08:59:40.393Z,14.4
2019-05-22T09:00:40.385Z,14.3
2019-05-22T09:01:40.375Z,14.3
2019-05-22T09:02:40.402Z,14.3
2019-05-22T09:03:40.426Z,14.3
2019-05-22T09:04:40.451Z,14.3
2019-05-22T09:05:40.454Z,14.3
2019-05-22T09:06:40.469Z,14.3
2019-05-22T09:07:40.745Z,14.3
2019-05-22T09:08:40.652Z,14.3
2019-05-22T09:09:40.480Z,14.3
2019-05-22T09:10:40.494Z,14.3
2019-05-22T09:11:40.516Z,14.3
2019-05-22T09:12:40.516Z,14.3
2019-05-22T09:13:40.551Z,14.3
2019-05-22T09:14:40.526Z,14.3
2019-05-22T09:15:40.517Z,14.3
2019-05-22T09:16:40.553Z,14.3
2019-05-22T09:17:40.528Z,14.3
2019-05-22T09:18:40.599Z,14.3
2019-05-22T09:19:40.526Z,14.3
2019-05-22T09:20:49.101Z,14.3
2019-05-22T09:21:40.769Z,14.3
2019-05-22T09:22:41.572Z,14.3
2019-05-22T09:23:40.742Z,14.3
2019-05-22T09:24:40.688Z,14.3
2019-05-22T09:25:40.804Z,14.3
2019-05-22T09:26:40.850Z,14.3
2019-05-22T09:27:43.119Z,14.3
2019-05-22T09:28:40.894Z,14.3
2019-05-22T09:29:40.980Z,14.3
2019-05-22T09:30:40.974Z,14.3
2019-05-22T09:31:41.015Z,14.3
2019-05-22T09:32:41.044Z,14.3
2019-05-22T09:33:41.103Z,14.3
2019-05-22T09:34:41.140Z,14.3
2019-05-22T09:35:41.262Z,14.2
2019-05-22T09:36:41.293Z,14.2
2019-05-22T09:37:41.328Z,14.2
2019-05-22T09:38:41.313Z,14.2
2019-05-22T09:39:41.374Z,14.2
2019-05-22T09:40:41.397Z,14.2
2019-05-22T09:41:41.420Z,14.2
2019-05-22T09:42:41.452Z,14.2
2019-05-22T09:43:41.451Z,14.2
2019-05-22T09:44:41.506Z,14.3
2019-05-22T09:45:41.579Z,14.3
2019-05-22T09:46:41.706Z,14.3
2019-05-22T09:47:41.623Z,14.3
2019-05-22T09:48:41.646Z,14.3
2019-05-22T09:49:41.703Z,14.3
2019-05-22T09:50:41.774Z,14.2
2019-05-22T09:51:41.803Z,14.2
2019-05-22T09:52:56.137Z,14.2
2019-05-22T09:53:41.876Z,14.2
2019-05-22T09:54:41.900Z,14.2
2019-05-22T09:55:41.982Z,14.2
2019-05-22T09:56:41.992Z,14.2
2019-05-22T09:57:42.071Z,14.2
2019-05-22T09:58:42.057Z,14.2
2019-05-22T09:59:42.093Z,14.2
2019-05-22T10:00:42.186Z,14.2
2019-05-22T10:01:42.215Z,14.2
2019-05-22T10:02:42.250Z,14.3
2019-05-22T10:03:42.263Z,14.3
2019-05-22T10:04:42.327Z,14.3
2019-05-22T10:05:42.400Z,14.3
2019-05-22T10:06:42.344Z,14.3
2019-05-22T10:07:57.512Z,14.2
2019-05-22T10:08:42.393Z,14.2
2019-05-22T10:09:42.425Z,14.2
2019-05-22T10:10:42.445Z,14.2
2019-05-22T10:11:42.482Z,14.2
2019-05-22T10:12:42.532Z,14.2
2019-05-22T10:13:42.595Z,14.2
2019-05-22T10:14:42.639Z,14.2
2019-05-22T10:15:42.641Z,14.1
2019-05-22T10:16:44.936Z,14.2
2019-05-22T10:17:42.714Z,14.1
2019-05-22T10:18:42.762Z,14.2
2019-05-22T10:19:42.819Z,14.2
2019-05-22T10:20:42.886Z,14.2
2019-05-22T10:21:42.805Z,14.2
2019-05-22T10:22:42.847Z,14.2
2019-05-22T10:23:42.898Z,14.2
2019-05-22T10:24:42.915Z,14.2
2019-05-22T10:25:42.960Z,14.2
2019-05-22T10:26:43.977Z,14.2
2019-05-22T10:27:42.976Z,14.2
2019-05-22T10:28:42.984Z,14.2
2019-05-22T10:29:43.000Z,14.2
2019-05-22T10:30:43.031Z,14.2
2019-05-22T10:31:43.056Z,14.2
2019-05-22T10:32:43.058Z,14.2
2019-05-22T10:33:43.053Z,14.2
2019-05-22T10:34:43.081Z,14.1
2019-05-22T10:35:43.107Z,14.1
2019-05-22T10:36:43.359Z,14.1
2019-05-22T10:37:45.442Z,14.1
2019-05-22T10:38:43.256Z,14.1
2019-05-22T10:39:43.199Z,14.1
2019-05-22T10:40:43.241Z,14.2
2019-05-22T10:41:43.297Z,14.1
2019-05-22T10:42:44.802Z,14.1
2019-05-22T10:43:43.280Z,14.2
2019-05-22T10:44:43.345Z,14.2
2019-05-22T10:45:43.382Z,14.2
2019-05-22T10:46:43.408Z,14.2
2019-05-22T10:47:43.391Z,14.2
2019-05-22T10:48:43.418Z,14.3
2019-05-22T10:49:43.449Z,14.3
2019-05-22T10:50:43.475Z,14.3
2019-05-22T10:51:43.577Z,14.3
2019-05-22T10:52:43.510Z,14.3
2019-05-22T10:53:43.544Z,14.3
2019-05-22T10:54:43.611Z,14.4
2019-05-22T10:55:43.586Z,14.4
2019-05-22T10:56:43.648Z,14.4
2019-05-22T10:57:44.453Z,14.4
2019-05-22T10:58:43.646Z,14.5
2019-05-22T10:59:43.652Z,14.5
2019-05-22T11:00:43.651Z,14.5
2019-05-22T11:01:43.690Z,14.5
2019-05-22T11:02:43.654Z,14.5
2019-05-22T11:03:43.673Z,14.6
2019-05-22T11:04:43.686Z,14.6
2019-05-22T11:05:43.701Z,14.6
2019-05-22T11:06:43.744Z,14.6
2019-05-22T11:07:43.774Z,14.6
2019-05-22T11:08:43.737Z,14.6
2019-05-22T11:09:43.741Z,14.6
2019-05-22T11:10:45.222Z,14.6
2019-05-22T11:11:43.807Z,14.6
2019-05-22T11:12:43.769Z,14.5
2019-05-22T11:13:59.696Z,14.5
2019-05-22T11:14:43.813Z,14.5
2019-05-22T11:15:43.810Z,14.5
2019-05-22T11:16:43.821Z,14.5
2019-05-22T11:17:43.806Z,14.5
2019-05-22T11:18:43.875Z,14.5
2019-05-22T11:19:43.859Z,14.4
2019-05-22T11:20:43.829Z,14.4
2019-05-22T11:21:43.838Z,14.4
2019-05-22T11:22:43.909Z,14.4
2019-05-22T11:23:51.755Z,14.4
2019-05-22T11:24:43.971Z,14.4
2019-05-22T11:25:44.075Z,14.4
2019-05-22T11:26:44.089Z,14.4
2019-05-22T11:27:44.148Z,14.4
2019-05-22T11:28:44.206Z,14.4
2019-05-22T11:29:44.250Z,14.4
2019-05-22T11:30:44.320Z,14.4
2019-05-22T11:31:44.301Z,14.4
2019-05-22T11:32:44.319Z,14.4
2019-05-22T11:33:44.352Z,14.4
2019-05-22T11:34:44.427Z,14.4
2019-05-22T11:35:44.498Z,14.4
2019-05-22T11:36:44.518Z,14.4
2019-05-22T11:37:44.640Z,14.4
2019-05-22T11:38:44.567Z,14.4
2019-05-22T11:39:45.082Z,14.4
2019-05-22T11:40:44.679Z,14.4
2019-05-22T11:41:44.758Z,14.4
2019-05-22T11:42:44.790Z,14.4
2019-05-22T11:43:44.853Z,14.3
2019-05-22T11:44:44.910Z,14.3
2019-05-22T11:45:45.607Z,14.3
2019-05-22T11:46:45.043Z,14.3
2019-05-22T11:47:45.033Z,14.3
2019-05-22T11:48:45.074Z,14.3
2019-05-22T11:49:45.099Z,14.3
2019-05-22T11:50:45.117Z,14.3
2019-05-22T11:51:45.215Z,14.3
2019-05-22T11:52:45.208Z,14.3
2019-05-22T11:53:45.275Z,14.3
2019-05-22T11:54:45.296Z,14.3
2019-05-22T11:55:46.217Z,14.3
2019-05-22T11:56:45.398Z,14.3
2019-05-22T11:57:45.447Z,14.3
2019-05-22T11:58:45.502Z,14.3
2019-05-22T11:59:45.517Z,14.3
2019-05-22T12:00:45.575Z,14.3
2019-05-22T12:01:45.611Z,14.3
2019-05-22T12:02:45.647Z,14.3
2019-05-22T12:03:45.691Z,14.3
2019-05-22T12:04:48.249Z,14.4
2019-05-22T12:05:45.742Z,14.3
2019-05-22T12:06:45.783Z,14.3
2019-05-22T12:07:45.758Z,14.4
2019-05-22T12:08:45.790Z,14.4
2019-05-22T12:09:45.793Z,14.4
2019-05-22T12:10:45.893Z,14.4
2019-05-22T12:11:45.881Z,14.4
2019-05-22T12:12:45.883Z,14.4
2019-05-22T12:13:45.921Z,14.4
2019-05-22T12:14:45.992Z,14.4
2019-05-22T12:15:46.026Z,14.4
2019-05-22T12:16:46.091Z,14.4
2019-05-22T12:17:46.089Z,14.4
2019-05-22T12:18:46.158Z,14.4
2019-05-22T12:19:46.199Z,14.4
2019-05-22T12:20:46.212Z,14.4
2019-05-22T12:21:46.267Z,14.4
2019-05-22T12:22:46.273Z,14.4
2019-05-22T12:23:46.330Z,14.4
2019-05-22T12:24:46.345Z,14.4
2019-05-22T12:25:46.371Z,14.5
2019-05-22T12:26:46.442Z,14.5
2019-05-22T12:27:46.437Z,14.5
2019-05-22T12:28:46.498Z,14.5
2019-05-22T12:29:46.540Z,14.5
2019-05-22T12:30:46.514Z,14.5
2019-05-22T12:31:46.576Z,14.4
2019-05-22T12:32:46.553Z,14.4
2019-05-22T12:33:46.586Z,14.4
2019-05-22T12:34:49.172Z,14.4
2019-05-22T12:35:46.612Z,14.4
2019-05-22T12:36:50.377Z,14.4
2019-05-22T12:37:46.761Z,14.4
2019-05-22T12:38:46.711Z,14.4
2019-05-22T12:39:46.735Z,14.4
2019-05-22T12:40:46.764Z,14.4
2019-05-22T12:41:46.829Z,14.4
2019-05-22T12:42:46.830Z,14.4
2019-05-22T12:43:47.830Z,14.4
2019-05-22T12:44:46.841Z,14.3
2019-05-22T12:45:46.911Z,14.4
2019-05-22T12:46:46.863Z,14.4
2019-05-22T12:47:46.989Z,14.4
2019-05-22T12:48:46.887Z,14.4
2019-05-22T12:49:46.957Z,14.4
2019-05-22T12:50:46.903Z,14.4
2019-05-22T12:51:46.943Z,14.3
2019-05-22T12:52:49.202Z,14.3
2019-05-22T12:53:46.939Z,14.3
2019-05-22T12:54:51.623Z,14.3
2019-05-22T12:55:46.971Z,14.3
2019-05-22T12:56:46.959Z,14.3
2019-05-22T12:57:46.974Z,14.2
2019-05-22T12:58:47.002Z,14.3
2019-05-22T12:59:47.029Z,14.3
2019-05-22T13:00:46.971Z,14.2
2019-05-22T13:01:47.024Z,14.2
2019-05-22T13:02:47.004Z,14.2
2019-05-22T13:03:46.998Z,14.2
2019-05-22T13:04:46.990Z,14.2
2019-05-22T13:05:47.072Z,14.2
2019-05-22T13:06:47.174Z,14.2
2019-05-22T13:07:47.151Z,12.9
2019-05-22T13:08:49.832Z,14.2
2019-05-22T13:09:48.314Z,14.2
2019-05-22T13:10:49.809Z,14.2
2019-05-22T13:11:47.349Z,14.2
2019-05-22T13:12:47.388Z,14.2
2019-05-22T13:13:47.446Z,14.2
2019-05-22T13:14:47.518Z,14.2
2019-05-22T13:15:47.551Z,14.2
2019-05-22T13:16:49.126Z,14.2
2019-05-22T13:17:47.672Z,14.2
2019-05-22T13:18:47.645Z,14.2
2019-05-22T13:19:47.720Z,14.2
2019-05-22T13:20:47.776Z,14.3